createdAt,value
2023-05-11T00:00:00.705Z,95175.94
2023-05-11T00:02:46.034Z,95171.59
2023-05-11T00:05:29.486Z,95181.19
2023-05-11T00:08:14.930Z,95176.41
2023-05-11T00:11:00.879Z,95177.53
2023-05-11T00:13:45.990Z,95179.31
2023-05-11T00:16:29.230Z,95175.09
2023-05-11T00:19:13.937Z,95182.69
2023-05-11T00:21:57.350Z,95182.06
2023-05-11T00:24:40.518Z,95186.59
2023-05-11T00:27:24.026Z,95174.47
2023-05-11T00:30:08.797Z,95193.81
2023-05-11T00:32:52.676Z,95175.72
2023-05-11T00:35:37.255Z,95189.50
2023-05-11T00:38:20.805Z,95185.91
2023-05-11T00:41:04.309Z,95190.88
2023-05-11T00:43:48.629Z,95185.50
2023-05-11T00:46:32.497Z,95189.47
2023-05-11T00:49:17.435Z,95190.25
2023-05-11T00:52:03.170Z,95193.44
2023-05-11T00:54:48.801Z,95193.28
2023-05-11T00:57:33.415Z,95195.91
2023-05-11T01:00:17.425Z,95193.97
2023-05-11T01:03:02.944Z,95190.00
2023-05-11T01:05:54.067Z,95186.00
2023-05-11T01:08:45.145Z,95186.81
2023-05-11T01:11:57.830Z,95180.41
2023-05-11T01:14:46.648Z,95184.41
2023-05-11T01:17:44.170Z,95192.78
2023-05-11T01:20:30.841Z,95191.41
2023-05-11T01:23:46.321Z,95190.81
2023-05-11T01:26:42.715Z,95197.19
2023-05-11T01:29:46.349Z,95191.38
2023-05-11T01:32:35.848Z,95196.78
2023-05-11T01:35:22.470Z,95188.00
2023-05-11T01:38:11.987Z,95188.00
2023-05-11T01:40:59.113Z,95182.41
2023-05-11T01:43:46.811Z,95182.00
2023-05-11T01:46:34.163Z,95189.00
2023-05-11T01:49:20.800Z,95183.25
2023-05-11T01:52:05.363Z,95186.81
2023-05-11T01:54:51.030Z,95196.78
2023-05-11T01:57:36.790Z,95191.22
2023-05-11T02:00:21.224Z,95194.84
2023-05-11T02:03:08.912Z,95186.88
2023-05-11T02:05:54.813Z,95190.47
2023-05-11T02:08:40.919Z,95189.28
2023-05-11T02:11:27.864Z,95190.28
2023-05-11T02:14:13.270Z,95189.66
2023-05-11T02:16:58.792Z,95192.06
2023-05-11T02:19:45.734Z,95192.03
2023-05-11T02:22:32.145Z,95188.28
2023-05-11T02:25:19.878Z,95186.69
2023-05-11T02:28:03.227Z,95183.91
2023-05-11T02:30:48.235Z,95175.34
2023-05-11T02:33:36.545Z,95188.50
2023-05-11T02:36:23.506Z,95174.53
2023-05-11T02:39:13.848Z,95187.28
2023-05-11T02:41:59.550Z,95182.88
2023-05-11T02:44:50.722Z,95194.47
2023-05-11T02:47:37.956Z,95186.50
2023-05-11T02:50:24.447Z,95189.28
2023-05-11T02:53:11.840Z,95185.13
2023-05-11T02:55:57.566Z,95182.13
2023-05-11T02:58:43.354Z,95185.91
2023-05-11T03:01:29.687Z,95179.94
2023-05-11T03:04:14.124Z,95187.28
2023-05-11T03:06:57.729Z,95185.53
2023-05-11T03:09:41.057Z,95184.91
2023-05-11T03:12:25.973Z,95176.16
2023-05-11T03:15:13.840Z,95181.75
2023-05-11T03:17:58.235Z,95184.13
2023-05-11T03:20:44.533Z,95189.09
2023-05-11T03:23:29.488Z,95196.06
2023-05-11T03:26:14.330Z,95190.28
2023-05-11T03:29:01.646Z,95195.25
2023-05-11T03:31:45.644Z,95198.44
2023-05-11T03:34:28.932Z,95189.09
2023-05-11T03:37:14.574Z,95196.25
2023-05-11T03:40:01.190Z,95192.09
2023-05-11T03:42:47.047Z,95193.66
2023-05-11T03:45:33.153Z,95197.66
2023-05-11T03:48:17.914Z,95188.09
2023-05-11T03:51:01.624Z,95186.91
2023-05-11T03:53:46.434Z,95200.44
2023-05-11T03:56:32.690Z,95205.41
2023-05-11T03:59:16.963Z,95213.56
2023-05-11T04:02:01.965Z,95206.00
2023-05-11T04:04:46.246Z,95205.59
2023-05-11T04:07:31.419Z,95200.81
2023-05-11T04:10:15.853Z,95206.22
2023-05-11T04:12:59.262Z,95202.03
2023-05-11T04:15:42.542Z,95211.75
2023-05-11T04:18:27.336Z,95205.00
2023-05-11T04:21:10.746Z,95208.78
2023-05-11T04:23:53.904Z,95213.53
2023-05-11T04:26:37.173Z,95211.19
2023-05-11T04:29:28.296Z,95221.13
2023-05-11T04:32:11.675Z,95196.78
2023-05-11T04:35:19.581Z,95229.06
2023-05-11T04:38:03.342Z,95227.88
2023-05-11T04:40:48.133Z,95227.88
2023-05-11T04:43:31.366Z,95223.91
2023-05-11T04:46:20.180Z,95232.25
2023-05-11T04:49:04.306Z,95229.06
2023-05-11T04:51:51.261Z,95235.03
2023-05-11T04:54:34.520Z,95223.31
2023-05-11T04:57:18.969Z,95224.88
2023-05-11T05:00:02.532Z,95223.50
2023-05-11T05:02:46.200Z,95239.41
2023-05-11T05:05:29.482Z,95236.44
2023-05-11T05:08:14.366Z,95235.03
2023-05-11T05:10:57.617Z,95246.59
2023-05-11T05:13:44.610Z,95255.56
2023-05-11T05:16:28.393Z,95247.16
2023-05-11T05:19:13.012Z,95257.72
2023-05-11T05:21:56.252Z,95253.56
2023-05-11T05:24:40.814Z,95245.41
2023-05-11T05:27:24.046Z,95243.00
2023-05-11T05:30:08.643Z,95244.22
2023-05-11T05:32:52.169Z,95252.34
2023-05-11T05:35:35.654Z,95248.97
2023-05-11T05:38:18.860Z,95258.94
2023-05-11T05:41:03.604Z,95250.59
2023-05-11T05:43:46.973Z,95256.16
2023-05-11T05:46:30.228Z,95250.38
2023-05-11T05:49:15.396Z,95257.38
2023-05-11T05:51:58.647Z,95251.41
2023-05-11T05:54:43.066Z,95268.13
2023-05-11T05:57:30.745Z,95262.34
2023-05-11T06:00:15.853Z,95268.53
2023-05-11T06:02:59.210Z,95273.66
2023-05-11T06:05:42.647Z,95271.69
2023-05-11T06:08:26.076Z,95273.09
2023-05-11T06:11:09.497Z,95269.50
2023-05-11T06:13:54.001Z,95275.31
2023-05-11T06:16:37.093Z,95278.88
2023-05-11T06:22:23.690Z,95285.84
2023-05-11T06:25:07.880Z,95280.84
2023-05-11T06:27:54.177Z,95282.44
2023-05-11T06:30:38.813Z,95291.63
2023-05-11T06:33:22.586Z,95284.84
2023-05-11T06:36:06.716Z,95291.03
2023-05-11T06:38:50.116Z,95293.22
2023-05-11T06:41:33.225Z,95290.03
2023-05-11T06:44:16.348Z,95294.59
2023-05-11T06:47:01.443Z,95296.22
2023-05-11T06:49:45.350Z,95298.81
2023-05-11T06:52:28.696Z,95295.44
2023-05-11T06:55:14.632Z,95295.81
2023-05-11T06:57:58.427Z,95295.63
2023-05-11T07:00:41.938Z,95293.44
2023-05-11T07:03:26.847Z,95291.63
2023-05-11T07:06:10.259Z,95278.09
2023-05-11T07:08:56.713Z,95286.59
2023-05-11T07:11:39.862Z,95291.75
2023-05-11T07:14:23.061Z,95280.31
2023-05-11T07:17:06.482Z,95287.88
2023-05-11T07:19:55.119Z,95292.19
2023-05-11T07:22:38.346Z,95285.16
2023-05-11T07:25:21.982Z,95285.50
2023-05-11T07:28:05.127Z,95295.47
2023-05-11T07:30:48.935Z,95291.94
2023-05-11T07:33:33.607Z,95288.09
2023-05-11T07:36:18.483Z,95298.78
2023-05-11T07:39:01.969Z,95294.91
2023-05-11T07:41:46.532Z,95294.56
2023-05-11T07:44:29.746Z,95283.94
2023-05-11T07:47:13.448Z,95289.09
2023-05-11T07:49:57.637Z,95291.56
2023-05-11T07:52:42.282Z,95289.97
2023-05-11T07:55:26.417Z,95300.09
2023-05-11T07:58:09.690Z,95283.44
2023-05-11T08:00:52.971Z,95297.31
2023-05-11T08:03:36.266Z,95300.97
2023-05-11T08:06:19.850Z,95296.69
2023-05-11T08:09:06.212Z,95293.88
2023-05-11T08:11:49.779Z,95296.44
2023-05-11T08:14:34.539Z,95298.75
2023-05-11T08:17:18.076Z,95304.97
2023-05-11T08:20:02.552Z,95305.03
2023-05-11T08:22:52.995Z,95295.84
2023-05-11T08:25:37.652Z,95293.88
2023-05-11T08:28:21.821Z,95293.88
2023-05-11T08:31:05.664Z,95296.19
2023-05-11T08:33:48.930Z,95294.44
2023-05-11T08:36:32.149Z,95294.91
2023-05-11T08:39:21.549Z,95287.63
2023-05-11T08:42:16.290Z,95300.94
2023-05-11T08:44:59.810Z,95299.06
2023-05-11T08:47:46.693Z,95282.09
2023-05-11T08:50:31.235Z,95291.63
2023-05-11T08:53:14.987Z,95299.47
2023-05-11T08:56:01.295Z,95305.88
2023-05-11T08:58:51.212Z,95259.91
2023-05-11T09:01:37.760Z,95287.94
2023-05-11T09:04:22.521Z,95292.41
2023-05-11T09:07:09.256Z,95283.94
2023-05-11T09:09:52.881Z,95280.63
2023-05-11T09:12:38.000Z,95283.22
2023-05-11T09:15:23.302Z,95278.72
2023-05-11T09:18:07.166Z,95285.34
2023-05-11T09:20:52.559Z,95285.00
2023-05-11T09:23:35.790Z,95278.31
2023-05-11T09:26:22.120Z,95277.66
2023-05-11T09:29:05.889Z,95278.13
2023-05-11T09:31:50.587Z,95290.72
2023-05-11T09:34:36.487Z,95291.06
2023-05-11T09:37:26.136Z,95281.56
2023-05-11T09:42:58.555Z,95288.41
2023-05-11T09:45:42.851Z,95280.19
2023-05-11T09:48:29.423Z,95296.94
2023-05-11T09:51:13.287Z,95277.09
2023-05-11T09:53:56.619Z,95276.38
2023-05-11T09:56:48.367Z,95269.94
2023-05-11T09:59:42.250Z,95276.75
2023-05-11T10:02:27.457Z,95266.47
2023-05-11T10:05:15.549Z,95257.25
2023-05-11T10:08:00.473Z,95269.34
2023-05-11T10:10:45.619Z,95261.44
2023-05-11T10:13:29.694Z,95253.59
2023-05-11T10:16:17.810Z,95247.00
2023-05-11T10:19:01.760Z,95234.72
2023-05-11T10:21:49.714Z,95244.16
2023-05-11T10:24:34.901Z,95247.22
2023-05-11T10:27:18.409Z,95245.66
2023-05-11T10:30:04.851Z,95228.53
2023-05-11T10:32:48.251Z,95238.50
2023-05-11T10:35:33.240Z,95236.44
2023-05-11T10:38:20.308Z,95216.75
2023-05-11T10:41:15.683Z,95223.91
2023-05-11T10:44:38.438Z,95217.81
2023-05-11T10:47:43.402Z,95219.50
2023-05-11T10:50:54.581Z,95217.84
2023-05-11T10:54:04.637Z,95221.63
2023-05-11T10:57:10.385Z,95214.41
2023-05-11T11:00:31.353Z,95209.25
2023-05-11T11:03:15.933Z,95206.41
2023-05-11T11:06:01.118Z,95196.66
2023-05-11T11:09:01.974Z,95207.88
2023-05-11T11:11:51.336Z,95213.09
2023-05-11T11:14:56.179Z,95222.47
2023-05-11T11:17:44.863Z,95212.94
2023-05-11T11:20:55.996Z,95211.84
2023-05-11T11:23:44.519Z,95201.22
2023-05-11T11:26:52.636Z,95203.97
2023-05-11T11:29:36.397Z,95199.72
2023-05-11T11:32:29.159Z,95203.50
2023-05-11T11:35:46.041Z,95203.00
2023-05-11T11:38:29.729Z,95204.88
2023-05-11T11:41:13.511Z,95190.63
2023-05-11T11:44:00.642Z,95208.19
2023-05-11T11:46:45.940Z,95202.50
2023-05-11T11:49:29.971Z,95194.94
2023-05-11T11:52:14.150Z,95211.78
2023-05-11T11:55:00.847Z,95202.97
2023-05-11T11:57:49.397Z,95205.50
2023-05-11T12:00:34.201Z,95197.53
2023-05-11T12:03:24.355Z,95194.44
2023-05-11T12:06:09.176Z,95199.31
2023-05-11T12:08:53.111Z,95194.06
2023-05-11T12:11:38.803Z,95180.75
2023-05-11T12:14:23.491Z,95196.06
2023-05-11T12:17:15.423Z,95192.34
2023-05-11T12:20:15.658Z,95189.38
2023-05-11T12:23:00.393Z,95183.75
2023-05-11T12:25:43.539Z,95185.22
2023-05-11T12:28:28.934Z,95179.13
2023-05-11T12:31:12.145Z,95164.56
2023-05-11T12:33:56.905Z,95173.22
2023-05-11T12:36:40.824Z,95170.88
2023-05-11T12:39:26.969Z,95170.78
2023-05-11T12:42:10.500Z,95172.56
2023-05-11T12:44:54.160Z,95154.13
2023-05-11T12:47:37.546Z,95159.66
2023-05-11T12:50:25.140Z,95150.44
2023-05-11T12:53:18.601Z,95152.56
2023-05-11T12:56:01.812Z,95146.41
2023-05-11T12:58:47.263Z,95141.78
2023-05-11T13:01:33.536Z,95129.00
2023-05-11T13:04:17.002Z,95147.06
2023-05-11T13:07:01.599Z,95134.28
2023-05-11T13:09:58.453Z,95131.16
2023-05-11T13:12:54.931Z,95135.66
2023-05-11T13:15:52.566Z,95139.94
2023-05-11T13:18:35.757Z,95139.78
2023-05-11T13:21:20.818Z,95123.84
2023-05-11T13:24:05.913Z,95129.56
2023-05-11T13:26:49.125Z,95118.16
2023-05-11T13:29:32.300Z,95128.41
2023-05-11T13:32:16.106Z,95126.38
2023-05-11T13:34:59.510Z,95130.31
2023-05-11T13:37:43.106Z,95134.09
2023-05-11T13:40:28.842Z,95122.03
2023-05-11T13:43:13.344Z,95121.72
2023-05-11T13:45:56.594Z,95125.00
2023-05-11T13:48:39.908Z,95132.88
2023-05-11T13:51:23.262Z,95139.41
2023-05-11T13:54:07.534Z,95132.44
2023-05-11T13:56:54.736Z,95136.59
2023-05-11T13:59:38.019Z,95119.47
2023-05-11T14:02:21.201Z,95121.19
2023-05-11T14:05:04.774Z,95122.97
2023-05-11T14:07:49.138Z,95114.53
2023-05-11T14:10:32.538Z,95107.34
2023-05-11T14:13:17.238Z,95124.25
2023-05-11T14:16:00.731Z,95109.91
2023-05-11T14:18:44.516Z,95105.38
2023-05-11T14:21:27.729Z,95122.09
2023-05-11T14:24:12.670Z,95119.09
2023-05-11T14:26:57.730Z,95122.63
2023-05-11T14:29:44.149Z,95119.28
2023-05-11T14:32:28.418Z,95129.59
2023-05-11T14:35:12.043Z,95122.59
2023-05-11T14:37:57.627Z,95121.56
2023-05-11T14:40:41.307Z,95118.94
2023-05-11T14:43:24.485Z,95121.25
2023-05-11T14:46:09.397Z,95114.44
2023-05-11T14:48:53.989Z,95135.38
2023-05-11T14:51:39.425Z,95121.22
2023-05-11T14:54:23.232Z,95119.41
2023-05-11T14:57:06.910Z,95121.84
2023-05-11T14:59:58.855Z,95134.53
2023-05-11T15:02:44.999Z,95144.66
2023-05-11T15:05:28.366Z,95128.53
2023-05-11T15:08:25.705Z,95128.66
2023-05-11T15:11:12.940Z,95123.66
2023-05-11T15:13:56.324Z,95131.38
2023-05-11T15:16:39.932Z,95120.63
2023-05-11T15:19:24.512Z,95116.53
2023-05-11T15:22:07.736Z,95135.34
2023-05-11T15:24:52.237Z,95138.41
2023-05-11T15:27:35.536Z,95130.81
2023-05-11T15:30:18.666Z,95127.44
2023-05-11T15:33:03.575Z,95124.56
2023-05-11T15:35:50.324Z,95130.00
2023-05-11T15:38:33.438Z,95117.22
2023-05-11T15:41:16.685Z,95131.50
2023-05-11T15:44:01.627Z,95129.22
2023-05-11T15:46:44.721Z,95119.47
2023-05-11T15:49:28.075Z,95136.31
2023-05-11T15:52:12.724Z,95131.09
2023-05-11T15:54:58.819Z,95142.66
2023-05-11T15:57:42.607Z,95124.09
2023-05-11T16:00:26.618Z,95148.41
2023-05-11T16:03:12.992Z,95140.38
2023-05-11T16:05:56.409Z,95135.19
2023-05-11T16:08:42.620Z,95148.72
2023-05-11T16:11:28.445Z,95115.47
2023-05-11T16:14:12.040Z,95119.88
2023-05-11T16:16:55.419Z,95128.03
2023-05-11T16:19:41.577Z,95123.72
2023-05-11T16:22:25.313Z,95133.22
2023-05-11T16:25:10.884Z,95134.16
2023-05-11T16:27:54.428Z,95130.44
2023-05-11T16:30:38.624Z,95129.75
2023-05-11T16:33:22.257Z,95129.97
2023-05-11T16:36:07.325Z,95124.97
2023-05-11T16:38:50.886Z,95137.25
2023-05-11T16:41:35.748Z,95138.56
2023-05-11T16:44:19.759Z,95147.97
2023-05-11T16:47:04.215Z,95147.28
2023-05-11T16:49:47.620Z,95142.97
2023-05-11T16:52:30.851Z,95144.44
2023-05-11T16:55:16.177Z,95156.63
2023-05-11T16:58:02.973Z,95146.59
2023-05-11T17:00:46.829Z,95150.78
2023-05-11T17:03:32.915Z,95157.06
2023-05-11T17:06:21.122Z,95160.25
2023-05-11T17:09:05.189Z,95161.84
2023-05-11T17:11:50.120Z,95150.25
2023-05-11T17:14:35.461Z,95158.56
2023-05-11T17:17:20.600Z,95155.94
2023-05-11T17:20:08.223Z,95159.59
2023-05-11T17:22:51.626Z,95161.94
2023-05-11T17:25:38.968Z,95142.50
2023-05-11T17:28:22.560Z,95149.84
2023-05-11T17:31:14.904Z,95149.84
2023-05-11T17:33:58.332Z,95146.91
2023-05-11T17:36:42.143Z,95152.53
2023-05-11T17:39:26.604Z,95152.19
2023-05-11T17:42:12.230Z,95149.34
2023-05-11T17:44:58.120Z,95145.41
2023-05-11T17:47:44.545Z,95155.00
2023-05-11T17:50:29.347Z,95154.22
2023-05-11T17:53:13.266Z,95149.66
2023-05-11T17:56:00.354Z,95153.41
2023-05-11T17:58:44.310Z,95143.13
2023-05-11T18:01:27.926Z,95148.22
2023-05-11T18:04:12.576Z,95149.63
2023-05-11T18:06:55.852Z,95152.59
2023-05-11T18:09:39.061Z,95153.53
2023-05-11T18:12:22.451Z,95151.91
2023-05-11T18:15:06.474Z,95154.84
2023-05-11T18:17:49.901Z,95159.91
2023-05-11T18:20:34.548Z,95159.44
2023-05-11T18:23:17.951Z,95159.91
2023-05-11T18:26:01.299Z,95158.34
2023-05-11T18:28:46.261Z,95176.06
2023-05-11T18:31:31.204Z,95169.84
2023-05-11T18:34:18.853Z,95170.88
2023-05-11T18:37:03.643Z,95183.75
2023-05-11T18:39:50.281Z,95176.44
2023-05-11T18:42:33.437Z,95164.81
2023-05-11T18:45:17.395Z,95177.53
2023-05-11T18:48:01.540Z,95182.31
2023-05-11T18:50:44.848Z,95186.03
2023-05-11T18:53:29.495Z,95174.56
2023-05-11T18:56:15.579Z,95189.53
2023-05-11T18:58:59.114Z,95183.31
2023-05-11T19:01:47.878Z,95185.16
2023-05-11T19:04:32.001Z,95179.47
2023-05-11T19:07:19.913Z,95190.75
2023-05-11T19:10:05.309Z,95178.22
2023-05-11T19:12:48.491Z,95179.22
2023-05-11T19:15:31.977Z,95191.47
2023-05-11T19:18:15.147Z,95182.06
2023-05-11T19:20:58.392Z,95180.34
2023-05-11T19:23:42.329Z,95175.53
2023-05-11T19:26:28.698Z,95183.84
2023-05-11T19:29:13.531Z,95186.66
2023-05-11T19:31:57.201Z,95183.03
2023-05-11T19:34:40.832Z,95182.50
2023-05-11T19:37:24.608Z,95178.13
2023-05-11T19:43:07.440Z,95186.50
2023-05-11T19:45:50.915Z,95188.56
2023-05-11T19:48:37.009Z,95183.56
2023-05-11T19:51:20.331Z,95182.31
2023-05-11T19:54:04.764Z,95192.00
2023-05-11T19:56:48.815Z,95192.44
2023-05-11T19:59:33.713Z,95194.88
2023-05-11T20:02:17.183Z,95196.47
2023-05-11T20:05:02.845Z,95194.03
2023-05-11T20:07:48.268Z,95199.50
2023-05-11T20:10:32.413Z,95202.25
2023-05-11T20:13:16.122Z,95204.72
2023-05-11T20:16:00.997Z,95201.66
2023-05-11T20:18:44.361Z,95204.97
2023-05-11T20:21:31.795Z,95211.91
2023-05-11T20:24:15.770Z,95190.81
2023-05-11T20:27:01.936Z,95202.94
2023-05-11T20:29:48.349Z,95208.53
2023-05-11T20:32:33.164Z,95213.34
2023-05-11T20:35:16.827Z,95210.25
2023-05-11T20:38:02.486Z,95211.91
2023-05-11T20:40:45.695Z,95206.84
2023-05-11T20:43:29.647Z,95203.25
2023-05-11T20:46:13.193Z,95203.72
2023-05-11T20:48:59.204Z,95209.38
2023-05-11T20:51:43.976Z,95209.72
2023-05-11T20:54:27.187Z,95207.41
2023-05-11T20:57:10.503Z,95216.22
2023-05-11T21:02:40.722Z,95212.19
2023-05-11T21:05:25.677Z,95217.44
2023-05-11T21:08:09.035Z,95226.31
2023-05-11T21:10:53.811Z,95215.47
2023-05-11T21:13:37.839Z,95221.94
2023-05-11T21:16:21.310Z,95226.38
2023-05-11T21:19:06.852Z,95224.66
2023-05-11T21:21:51.670Z,95234.03
2023-05-11T21:24:37.730Z,95236.22
2023-05-11T21:27:21.193Z,95240.81
2023-05-11T21:30:04.975Z,95236.09
2023-05-11T21:32:50.780Z,95229.72
2023-05-11T21:35:34.124Z,95226.97
2023-05-11T21:38:18.889Z,95236.09
2023-05-11T21:41:02.183Z,95230.13
2023-05-11T21:43:45.912Z,95237.97
2023-05-11T21:46:29.200Z,95229.56
2023-05-11T21:49:13.629Z,95236.34
2023-05-11T21:51:57.257Z,95235.94
2023-05-11T21:54:41.935Z,95236.91
2023-05-11T21:57:25.383Z,95238.56
2023-05-11T22:00:10.931Z,95239.72
2023-05-11T22:02:54.127Z,95242.97
2023-05-11T22:05:37.413Z,95239.31
2023-05-11T22:08:20.764Z,95237.78
2023-05-11T22:11:05.544Z,95232.22
2023-05-11T22:13:48.708Z,95234.63
2023-05-11T22:16:32.863Z,95243.81
2023-05-11T22:19:16.253Z,95239.81
2023-05-11T22:21:59.483Z,95231.81
2023-05-11T22:24:42.992Z,95232.66
2023-05-11T22:27:27.947Z,95230.22
2023-05-11T22:30:12.173Z,95232.75
2023-05-11T22:32:55.807Z,95242.97
2023-05-11T22:35:40.094Z,95224.44
2023-05-11T22:38:23.587Z,95238.44
2023-05-11T22:41:06.780Z,95231.31
2023-05-11T22:43:51.376Z,95232.66
2023-05-11T22:46:34.838Z,95238.44
2023-05-11T22:49:18.082Z,95233.50
2023-05-11T22:52:01.194Z,95232.75
2023-05-11T22:54:44.573Z,95235.91
2023-05-11T22:57:27.852Z,95232.91
2023-05-11T23:00:13.901Z,95221.19
2023-05-11T23:02:59.574Z,95225.78
2023-05-11T23:05:43.293Z,95229.72
2023-05-11T23:08:26.860Z,95225.47
2023-05-11T23:11:10.116Z,95225.13
2023-05-11T23:13:53.580Z,95224.94
2023-05-11T23:16:38.272Z,95228.31
2023-05-11T23:19:25.202Z,95215.94
2023-05-11T23:22:08.896Z,95222.13
2023-05-11T23:24:52.181Z,95217.56
2023-05-11T23:27:35.376Z,95220.44
2023-05-11T23:30:19.615Z,95220.03
2023-05-11T23:33:04.535Z,95212.53
2023-05-11T23:35:48.955Z,95218.63
2023-05-11T23:38:32.117Z,95213.69
2023-05-11T23:41:15.338Z,95222.47
2023-05-11T23:43:58.744Z,95224.69
2023-05-11T23:46:43.491Z,95216.31
2023-05-11T23:49:28.106Z,95209.75
2023-05-11T23:52:11.502Z,95214.72
2023-05-11T23:54:55.002Z,95216.31
2023-05-11T23:57:38.193Z,95214.09
